Terminal Aerodrome Forecast
Issued by NWS

Home | Current Version | Previous Version | Text Only | Print | Product List | Glossary On
Versions: 1 2 3 4 5 6 7 8 9 10 11 12 13 14 15 16 17 18 19 20 21 22 23 24 25 26 27 28
000
FTUS44 KLIX 011729
TAFHUM
TAF
KHUM 011729Z 0118/0218 19006KT P6SM VCSH BKN021
     FM012000 23010KT P6SM SCT035
      TEMPO 0120/0123 VRB30KT 2SM TSRA BKN025CB
     FM020000 23004KT P6SM SCT250
     FM021500 21008KT P6SM SCT035=

USA.gov is the U.S. government's official web portal to all federal, state and local government web resources and services.